Rhodanus — PGBC — position and weather

sailwx.info

Track history (hours):
 
Tides and Currents Weather Stations Pressure Air Temp Water Temp Dewpoint Dewpoint Depression Visibility Wind Speed Wind Dir Waves Ship Positions

Rhodanus

Last reported at 2014-Dec-06 07:32 UTC. Time now 2014-Dec-21 23:15 UTC.
Position N 40°57' E 028°60'.
Warning: this ship's position is 15 days out of date.

Length 89 m; draft 3.2 m.

Type: Cargo ship. MMSI: 245848000.

Date/timePositionNaut miles runAvg speedWind from/ knotsBaromVisibWave heightAir tempDewpointWater temp
2014-Dec-06 07:32N 40°57' E 028°60'3 2.9
2014-Dec-06 06:31N 40°55' E 028°57'4 3.8
2014-Dec-06 05:21N 40°52' E 028°53'288 7.3
2014-Dec-04 14:08N 37°41' E 024°15'  
2014-Dec-02 08:17N 37°50' E 015°45'17 8.1
2014-Dec-02 06:12N 38°05' E 015°35'  
2014-Nov-27 14:33N 43°21' E 010°18'1010.3
2014-Nov-27 13:33N 43°30' E 010°13'5 4.6
2014-Nov-27 12:33N 43°33' E 010°18'0 0.0
2014-Nov-27 11:30N 43°33' E 010°18'0 0.0
2014-Nov-27 10:28N 43°33' E 010°18'0 0.0
2014-Nov-27 09:31N 43°33' E 010°18'0 0.0
2014-Nov-27 08:31N 43°33' E 010°18'0 0.0
2014-Nov-27 07:31N 43°33' E 010°18'0 0.0
2014-Nov-27 06:31N 43°33' E 010°18'0 0.0
2014-Nov-27 05:31N 43°33' E 010°18'0 0.0
2014-Nov-27 04:25N 43°33' E 010°18'0 0.0
2014-Nov-27 03:31N 43°33' E 010°18'0 0.0
2014-Nov-27 02:31N 43°33' E 010°18'0 0.0
2014-Nov-27 01:31N 43°33' E 010°18'0 0.0
2014-Nov-27 00:31N 43°33' E 010°18'0 0.0
2014-Nov-26 23:25N 43°33' E 010°18'0 0.0
2014-Nov-26 22:31N 43°33' E 010°18'0 0.0
2014-Nov-26 21:31N 43°33' E 010°18'0 0.0
2014-Nov-26 20:31N 43°33' E 010°18'0 0.0
2014-Nov-26 19:31N 43°33' E 010°18'0 0.0
2014-Nov-26 18:31N 43°33' E 010°18'0 0.0
2014-Nov-26 17:31N 43°33' E 010°18'0 0.0
2014-Nov-26 16:31N 43°33' E 010°18'0 0.0
2014-Nov-26 15:31N 43°33' E 010°18'0 0.0
2014-Nov-26 14:31N 43°33' E 010°18'0 0.0
2014-Nov-26 13:31N 43°33' E 010°18'0 0.0
2014-Nov-26 12:31N 43°33' E 010°18'0 0.0
2014-Nov-26 11:31N 43°33' E 010°18'0 0.0
2014-Nov-26 10:31N 43°33' E 010°18'0 0.0
2014-Nov-26 09:31N 43°33' E 010°18'0 0.0
2014-Nov-26 08:31N 43°33' E 010°18'  
Track history (hours):
 
Tides and Currents Weather Stations Pressure Air Temp Water Temp Dewpoint Dewpoint Depression Visibility Wind Speed Wind Dir Waves Ship Positions

Rhodanus

Last reported at 2014-Dec-06 07:32 UTC. Time now 2014-Dec-21 23:15 UTC.
Position N 40°57' E 028°60'.
Warning: this ship's position is 15 days out of date.

Length 89 m; draft 3.2 m.

Type: Cargo ship. MMSI: 245848000.

Date/timePositionNaut miles runAvg speedWind from/ knotsBaromVisibWave heightAir tempDewpointWater temp
2014-Dec-06 07:32N 40°57' E 028°60'3 2.9
2014-Dec-06 06:31N 40°55' E 028°57'4 3.8
2014-Dec-06 05:21N 40°52' E 028°53'288 7.3
2014-Dec-04 14:08N 37°41' E 024°15'  
2014-Dec-02 08:17N 37°50' E 015°45'17 8.1
2014-Dec-02 06:12N 38°05' E 015°35'  
2014-Nov-27 14:33N 43°21' E 010°18'1010.3
2014-Nov-27 13:33N 43°30' E 010°13'5 4.6
2014-Nov-27 12:33N 43°33' E 010°18'0 0.0
2014-Nov-27 11:30N 43°33' E 010°18'0 0.0
2014-Nov-27 10:28N 43°33' E 010°18'0 0.0
2014-Nov-27 09:31N 43°33' E 010°18'0 0.0
2014-Nov-27 08:31N 43°33' E 010°18'0 0.0
2014-Nov-27 07:31N 43°33' E 010°18'0 0.0
2014-Nov-27 06:31N 43°33' E 010°18'0 0.0
2014-Nov-27 05:31N 43°33' E 010°18'0 0.0
2014-Nov-27 04:25N 43°33' E 010°18'0 0.0
2014-Nov-27 03:31N 43°33' E 010°18'0 0.0
2014-Nov-27 02:31N 43°33' E 010°18'0 0.0
2014-Nov-27 01:31N 43°33' E 010°18'0 0.0
2014-Nov-27 00:31N 43°33' E 010°18'0 0.0
2014-Nov-26 23:25N 43°33' E 010°18'0 0.0
2014-Nov-26 22:31N 43°33' E 010°18'0 0.0
2014-Nov-26 21:31N 43°33' E 010°18'0 0.0
2014-Nov-26 20:31N 43°33' E 010°18'0 0.0
2014-Nov-26 19:31N 43°33' E 010°18'0 0.0
2014-Nov-26 18:31N 43°33' E 010°18'0 0.0
2014-Nov-26 17:31N 43°33' E 010°18'0 0.0
2014-Nov-26 16:31N 43°33' E 010°18'0 0.0
2014-Nov-26 15:31N 43°33' E 010°18'0 0.0
2014-Nov-26 14:31N 43°33' E 010°18'0 0.0
2014-Nov-26 13:31N 43°33' E 010°18'0 0.0
2014-Nov-26 12:31N 43°33' E 010°18'0 0.0
2014-Nov-26 11:31N 43°33' E 010°18'0 0.0
2014-Nov-26 10:31N 43°33' E 010°18'0 0.0
2014-Nov-26 09:31N 43°33' E 010°18'0 0.0
2014-Nov-26 08:31N 43°33' E 010°18'  

Dump ship's entire track history